sensor_id;sensor_type;location;lat;lon;timestamp;P1;durP1;ratioP1;P2;durP2;ratioP2
13228;SDS011;6680;53.220;10.402;2023-08-08T00:00:01;2.50;;;2.10;;
13228;SDS011;6680;53.220;10.402;2023-08-08T00:02:28;2.60;;;2.40;;
13228;SDS011;6680;53.220;10.402;2023-08-08T00:04:54;2.20;;;2.00;;
13228;SDS011;6680;53.220;10.402;2023-08-08T00:07:21;4.30;;;2.23;;
13228;SDS011;6680;53.220;10.402;2023-08-08T00:09:48;4.00;;;2.00;;
13228;SDS011;6680;53.220;10.402;2023-08-08T00:12:16;3.00;;;2.07;;
13228;SDS011;6680;53.220;10.402;2023-08-08T00:14:43;2.67;;;2.10;;
13228;SDS011;6680;53.220;10.402;2023-08-08T00:17:09;4.73;;;2.50;;
13228;SDS011;6680;53.220;10.402;2023-08-08T00:19:36;3.37;;;2.40;;
13228;SDS011;6680;53.220;10.402;2023-08-08T00:22:03;2.10;;;1.90;;
13228;SDS011;6680;53.220;10.402;2023-08-08T00:24:29;2.33;;;2.13;;
13228;SDS011;6680;53.220;10.402;2023-08-08T00:26:56;3.17;;;1.87;;
13228;SDS011;6680;53.220;10.402;2023-08-08T00:29:24;4.90;;;2.33;;
13228;SDS011;6680;53.220;10.402;2023-08-08T00:31:51;3.43;;;2.30;;
13228;SDS011;6680;53.220;10.402;2023-08-08T00:34:18;2.33;;;2.13;;
13228;SDS011;6680;53.220;10.402;2023-08-08T00:36:45;2.20;;;2.00;;
13228;SDS011;6680;53.220;10.402;2023-08-08T00:39:12;2.03;;;1.67;;
13228;SDS011;6680;53.220;10.402;2023-08-08T00:41:38;3.63;;;2.57;;
13228;SDS011;6680;53.220;10.402;2023-08-08T00:44:05;2.17;;;2.07;;
13228;SDS011;6680;53.220;10.402;2023-08-08T00:46:33;3.23;;;2.30;;
13228;SDS011;6680;53.220;10.402;2023-08-08T00:49:00;7.00;;;2.30;;
13228;SDS011;6680;53.220;10.402;2023-08-08T00:51:26;4.20;;;2.43;;
13228;SDS011;6680;53.220;10.402;2023-08-08T00:53:53;3.90;;;2.37;;
13228;SDS011;6680;53.220;10.402;2023-08-08T00:56:20;3.27;;;2.20;;
13228;SDS011;6680;53.220;10.402;2023-08-08T00:58:47;2.33;;;2.10;;
13228;SDS011;6680;53.220;10.402;2023-08-08T01:01:15;2.27;;;2.07;;
13228;SDS011;6680;53.220;10.402;2023-08-08T01:03:44;9.23;;;2.27;;
13228;SDS011;6680;53.220;10.402;2023-08-08T01:06:13;4.30;;;1.80;;
13228;SDS011;6680;53.220;10.402;2023-08-08T01:08:47;3.00;;;2.10;;
13228;SDS011;6680;53.220;10.402;2023-08-08T01:11:19;3.47;;;2.30;;
13228;SDS011;6680;53.220;10.402;2023-08-08T01:13:46;3.23;;;2.13;;
13228;SDS011;6680;53.220;10.402;2023-08-08T01:16:13;3.97;;;2.63;;
13228;SDS011;6680;53.220;10.402;2023-08-08T01:18:41;5.27;;;1.93;;
13228;SDS011;6680;53.220;10.402;2023-08-08T01:21:10;3.53;;;2.30;;
13228;SDS011;6680;53.220;10.402;2023-08-08T01:23:41;5.53;;;2.30;;
13228;SDS011;6680;53.220;10.402;2023-08-08T01:26:12;2.67;;;1.90;;
13228;SDS011;6680;53.220;10.402;2023-08-08T01:28:41;2.93;;;1.83;;
13228;SDS011;6680;53.220;10.402;2023-08-08T01:31:08;3.57;;;2.60;;
13228;SDS011;6680;53.220;10.402;2023-08-08T01:33:35;4.03;;;2.13;;
13228;SDS011;6680;53.220;10.402;2023-08-08T01:36:02;3.57;;;2.60;;
13228;SDS011;6680;53.220;10.402;2023-08-08T01:38:39;2.93;;;2.00;;
13228;SDS011;6680;53.220;10.402;2023-08-08T01:41:08;6.03;;;2.17;;
13228;SDS011;6680;53.220;10.402;2023-08-08T01:43:36;3.17;;;1.80;;
13228;SDS011;6680;53.220;10.402;2023-08-08T01:46:04;6.83;;;2.27;;
13228;SDS011;6680;53.220;10.402;2023-08-08T01:48:33;2.17;;;1.90;;
13228;SDS011;6680;53.220;10.402;2023-08-08T01:50:59;6.10;;;2.30;;
13228;SDS011;6680;53.220;10.402;2023-08-08T01:53:26;4.20;;;2.07;;
13228;SDS011;6680;53.220;10.402;2023-08-08T01:55:53;2.20;;;1.97;;
13228;SDS011;6680;53.220;10.402;2023-08-08T01:58:20;2.53;;;2.10;;
13228;SDS011;6680;53.220;10.402;2023-08-08T02:00:48;2.43;;;2.23;;
13228;SDS011;6680;53.220;10.402;2023-08-08T02:03:14;1.87;;;1.70;;
13228;SDS011;6680;53.220;10.402;2023-08-08T02:05:41;4.33;;;1.97;;
13228;SDS011;6680;53.220;10.402;2023-08-08T02:08:09;4.00;;;2.37;;
13228;SDS011;6680;53.220;10.402;2023-08-08T02:10:36;2.73;;;2.13;;
13228;SDS011;6680;53.220;10.402;2023-08-08T02:13:02;4.27;;;2.40;;
13228;SDS011;6680;53.220;10.402;2023-08-08T02:15:29;5.87;;;2.40;;
13228;SDS011;6680;53.220;10.402;2023-08-08T02:17:58;2.97;;;2.03;;
13228;SDS011;6680;53.220;10.402;2023-08-08T02:20:25;4.33;;;2.00;;
13228;SDS011;6680;53.220;10.402;2023-08-08T02:22:52;2.97;;;2.00;;
13228;SDS011;6680;53.220;10.402;2023-08-08T02:25:19;3.80;;;2.37;;
13228;SDS011;6680;53.220;10.402;2023-08-08T02:27:45;2.27;;;2.00;;
13228;SDS011;6680;53.220;10.402;2023-08-08T02:30:12;5.00;;;2.43;;
13228;SDS011;6680;53.220;10.402;2023-08-08T02:32:40;5.27;;;2.43;;
13228;SDS011;6680;53.220;10.402;2023-08-08T02:35:08;4.63;;;2.13;;
13228;SDS011;6680;53.220;10.402;2023-08-08T02:37:35;4.80;;;2.20;;
13228;SDS011;6680;53.220;10.402;2023-08-08T02:40:02;2.87;;;1.90;;
13228;SDS011;6680;53.220;10.402;2023-08-08T02:42:29;3.47;;;2.27;;
13228;SDS011;6680;53.220;10.402;2023-08-08T02:44:56;3.13;;;2.07;;
13228;SDS011;6680;53.220;10.402;2023-08-08T02:47:23;2.07;;;1.90;;
13228;SDS011;6680;53.220;10.402;2023-08-08T02:49:49;2.37;;;1.93;;
13228;SDS011;6680;53.220;10.402;2023-08-08T02:52:18;3.50;;;1.90;;
13228;SDS011;6680;53.220;10.402;2023-08-08T02:54:44;2.37;;;2.07;;
13228;SDS011;6680;53.220;10.402;2023-08-08T02:57:11;1.97;;;1.87;;
13228;SDS011;6680;53.220;10.402;2023-08-08T02:59:38;2.40;;;2.20;;
13228;SDS011;6680;53.220;10.402;2023-08-08T03:02:04;2.90;;;2.70;;
13228;SDS011;6680;53.220;10.402;2023-08-08T03:04:31;4.40;;;2.23;;
13228;SDS011;6680;53.220;10.402;2023-08-08T03:06:58;2.60;;;2.33;;
13228;SDS011;6680;53.220;10.402;2023-08-08T03:09:28;5.40;;;2.50;;
13228;SDS011;6680;53.220;10.402;2023-08-08T03:11:54;2.97;;;2.63;;
13228;SDS011;6680;53.220;10.402;2023-08-08T03:14:21;3.47;;;2.23;;
13228;SDS011;6680;53.220;10.402;2023-08-08T03:16:48;2.50;;;2.30;;
13228;SDS011;6680;53.220;10.402;2023-08-08T03:19:14;2.80;;;2.50;;
13228;SDS011;6680;53.220;10.402;2023-08-08T03:21:41;2.93;;;1.97;;
13228;SDS011;6680;53.220;10.402;2023-08-08T03:24:08;2.80;;;2.30;;
13228;SDS011;6680;53.220;10.402;2023-08-08T03:26:36;3.40;;;2.50;;
13228;SDS011;6680;53.220;10.402;2023-08-08T03:29:02;3.63;;;2.67;;
13228;SDS011;6680;53.220;10.402;2023-08-08T03:31:29;4.77;;;2.60;;
13228;SDS011;6680;53.220;10.402;2023-08-08T03:33:56;4.30;;;1.97;;
13228;SDS011;6680;53.220;10.402;2023-08-08T03:36:22;3.43;;;2.37;;
13228;SDS011;6680;53.220;10.402;2023-08-08T03:38:49;4.20;;;2.40;;
13228;SDS011;6680;53.220;10.402;2023-08-08T03:41:16;2.67;;;2.23;;
13228;SDS011;6680;53.220;10.402;2023-08-08T03:43:44;4.27;;;2.50;;
13228;SDS011;6680;53.220;10.402;2023-08-08T03:46:10;2.97;;;2.50;;
13228;SDS011;6680;53.220;10.402;2023-08-08T03:48:37;4.40;;;2.40;;
13228;SDS011;6680;53.220;10.402;2023-08-08T03:51:04;2.27;;;2.07;;
13228;SDS011;6680;53.220;10.402;2023-08-08T03:53:31;3.17;;;2.37;;
13228;SDS011;6680;53.220;10.402;2023-08-08T03:55:58;2.03;;;1.90;;
13228;SDS011;6680;53.220;10.402;2023-08-08T03:58:25;3.87;;;2.53;;
13228;SDS011;6680;53.220;10.402;2023-08-08T04:00:55;3.00;;;2.30;;
13228;SDS011;6680;53.220;10.402;2023-08-08T04:03:22;3.97;;;2.30;;
13228;SDS011;6680;53.220;10.402;2023-08-08T04:05:49;3.40;;;2.50;;
13228;SDS011;6680;53.220;10.402;2023-08-08T04:08:16;7.00;;;2.57;;
13228;SDS011;6680;53.220;10.402;2023-08-08T04:10:43;9.20;;;2.60;;
13228;SDS011;6680;53.220;10.402;2023-08-08T04:13:12;4.30;;;2.63;;
13228;SDS011;6680;53.220;10.402;2023-08-08T04:15:39;4.73;;;2.60;;
13228;SDS011;6680;53.220;10.402;2023-08-08T04:18:07;3.07;;;2.40;;
13228;SDS011;6680;53.220;10.402;2023-08-08T04:20:33;5.23;;;2.63;;
13228;SDS011;6680;53.220;10.402;2023-08-08T04:23:00;2.63;;;2.20;;
13228;SDS011;6680;53.220;10.402;2023-08-08T04:25:27;2.50;;;2.30;;
13228;SDS011;6680;53.220;10.402;2023-08-08T04:27:54;1.97;;;1.77;;
13228;SDS011;6680;53.220;10.402;2023-08-08T04:30:21;2.43;;;2.23;;
13228;SDS011;6680;53.220;10.402;2023-08-08T04:32:47;2.43;;;2.03;;
13228;SDS011;6680;53.220;10.402;2023-08-08T04:35:16;2.70;;;2.40;;
13228;SDS011;6680;53.220;10.402;2023-08-08T04:37:42;3.27;;;2.10;;
13228;SDS011;6680;53.220;10.402;2023-08-08T04:40:09;3.73;;;2.70;;
13228;SDS011;6680;53.220;10.402;2023-08-08T04:42:36;3.83;;;2.90;;
13228;SDS011;6680;53.220;10.402;2023-08-08T04:45:03;2.43;;;2.23;;
13228;SDS011;6680;53.220;10.402;2023-08-08T04:47:31;3.57;;;2.53;;
13228;SDS011;6680;53.220;10.402;2023-08-08T04:49:57;3.97;;;2.40;;
13228;SDS011;6680;53.220;10.402;2023-08-08T04:52:26;7.10;;;2.87;;
13228;SDS011;6680;53.220;10.402;2023-08-08T04:54:52;2.33;;;2.00;;
13228;SDS011;6680;53.220;10.402;2023-08-08T04:57:19;3.03;;;2.50;;
13228;SDS011;6680;53.220;10.402;2023-08-08T04:59:46;3.33;;;2.30;;
13228;SDS011;6680;53.220;10.402;2023-08-08T05:02:12;4.33;;;2.63;;
13228;SDS011;6680;53.220;10.402;2023-08-08T05:04:39;2.67;;;2.47;;
13228;SDS011;6680;53.220;10.402;2023-08-08T05:07:06;3.17;;;2.87;;
13228;SDS011;6680;53.220;10.402;2023-08-08T05:09:34;2.43;;;2.23;;
13228;SDS011;6680;53.220;10.402;2023-08-08T05:12:00;3.03;;;2.37;;
13228;SDS011;6680;53.220;10.402;2023-08-08T05:14:27;2.23;;;2.07;;
13228;SDS011;6680;53.220;10.402;2023-08-08T05:16:54;2.93;;;2.00;;
13228;SDS011;6680;53.220;10.402;2023-08-08T05:19:20;3.40;;;2.40;;
13228;SDS011;6680;53.220;10.402;2023-08-08T05:21:49;2.93;;;2.10;;
13228;SDS011;6680;53.220;10.402;2023-08-08T05:24:16;6.33;;;2.50;;
13228;SDS011;6680;53.220;10.402;2023-08-08T05:26:43;3.07;;;1.93;;
13228;SDS011;6680;53.220;10.402;2023-08-08T05:29:10;2.97;;;2.50;;
13228;SDS011;6680;53.220;10.402;2023-08-08T05:31:37;3.37;;;1.90;;
13228;SDS011;6680;53.220;10.402;2023-08-08T05:34:03;3.30;;;2.13;;
13228;SDS011;6680;53.220;10.402;2023-08-08T05:36:30;2.03;;;1.83;;
13228;SDS011;6680;53.220;10.402;2023-08-08T05:38:57;3.27;;;2.20;;
13228;SDS011;6680;53.220;10.402;2023-08-08T05:41:23;1.83;;;1.73;;
13228;SDS011;6680;53.220;10.402;2023-08-08T05:43:51;3.73;;;2.10;;
13228;SDS011;6680;53.220;10.402;2023-08-08T05:46:18;2.83;;;1.93;;
13228;SDS011;6680;53.220;10.402;2023-08-08T05:48:45;2.07;;;1.83;;
13228;SDS011;6680;53.220;10.402;2023-08-08T05:51:12;3.53;;;2.00;;
13228;SDS011;6680;53.220;10.402;2023-08-08T05:53:38;2.20;;;2.00;;
13228;SDS011;6680;53.220;10.402;2023-08-08T05:56:05;2.50;;;2.30;;
13228;SDS011;6680;53.220;10.402;2023-08-08T05:58:31;2.17;;;1.97;;
13228;SDS011;6680;53.220;10.402;2023-08-08T06:00:59;3.33;;;2.33;;
13228;SDS011;6680;53.220;10.402;2023-08-08T06:03:26;2.77;;;2.50;;
13228;SDS011;6680;53.220;10.402;2023-08-08T06:05:53;3.00;;;2.10;;
13228;SDS011;6680;53.220;10.402;2023-08-08T06:08:21;2.17;;;1.97;;
13228;SDS011;6680;53.220;10.402;2023-08-08T06:10:47;2.57;;;2.37;;
13228;SDS011;6680;53.220;10.402;2023-08-08T06:13:14;3.07;;;2.33;;
13228;SDS011;6680;53.220;10.402;2023-08-08T06:15:41;2.67;;;2.47;;
13228;SDS011;6680;53.220;10.402;2023-08-08T06:18:09;2.87;;;2.57;;
13228;SDS011;6680;53.220;10.402;2023-08-08T06:20:35;3.40;;;2.57;;
13228;SDS011;6680;53.220;10.402;2023-08-08T06:23:02;4.70;;;2.50;;
13228;SDS011;6680;53.220;10.402;2023-08-08T06:25:29;5.13;;;2.90;;
13228;SDS011;6680;53.220;10.402;2023-08-08T06:27:56;2.80;;;2.37;;
13228;SDS011;6680;53.220;10.402;2023-08-08T06:30:22;4.23;;;2.20;;
13228;SDS011;6680;53.220;10.402;2023-08-08T06:32:49;2.73;;;2.53;;
13228;SDS011;6680;53.220;10.402;2023-08-08T06:35:17;3.70;;;2.30;;
13228;SDS011;6680;53.220;10.402;2023-08-08T06:37:44;3.00;;;2.70;;
13228;SDS011;6680;53.220;10.402;2023-08-08T06:40:11;4.03;;;2.40;;
13228;SDS011;6680;53.220;10.402;2023-08-08T06:42:38;3.40;;;2.90;;
13228;SDS011;6680;53.220;10.402;2023-08-08T06:45:05;3.63;;;2.40;;
13228;SDS011;6680;53.220;10.402;2023-08-08T06:47:34;4.80;;;2.40;;
13228;SDS011;6680;53.220;10.402;2023-08-08T06:50:01;2.63;;;2.07;;
13228;SDS011;6680;53.220;10.402;2023-08-08T06:52:29;6.27;;;2.30;;
13228;SDS011;6680;53.220;10.402;2023-08-08T06:54:56;4.43;;;2.63;;
13228;SDS011;6680;53.220;10.402;2023-08-08T06:57:23;5.30;;;2.70;;
13228;SDS011;6680;53.220;10.402;2023-08-08T06:59:49;2.07;;;1.97;;
13228;SDS011;6680;53.220;10.402;2023-08-08T07:02:18;3.63;;;2.43;;
13228;SDS011;6680;53.220;10.402;2023-08-08T07:04:45;2.40;;;2.20;;
13228;SDS011;6680;53.220;10.402;2023-08-08T07:07:12;2.30;;;2.10;;
13228;SDS011;6680;53.220;10.402;2023-08-08T07:09:40;2.50;;;2.30;;
13228;SDS011;6680;53.220;10.402;2023-08-08T07:12:07;4.00;;;2.70;;
13228;SDS011;6680;53.220;10.402;2023-08-08T07:14:34;3.87;;;2.57;;
13228;SDS011;6680;53.220;10.402;2023-08-08T07:17:00;4.17;;;2.70;;
13228;SDS011;6680;53.220;10.402;2023-08-08T07:19:28;2.93;;;2.30;;
13228;SDS011;6680;53.220;10.402;2023-08-08T07:21:55;3.37;;;2.53;;
13228;SDS011;6680;53.220;10.402;2023-08-08T07:24:21;3.57;;;2.50;;
13228;SDS011;6680;53.220;10.402;2023-08-08T07:26:52;5.70;;;2.40;;
13228;SDS011;6680;53.220;10.402;2023-08-08T07:29:19;4.80;;;2.43;;
13228;SDS011;6680;53.220;10.402;2023-08-08T07:31:46;2.47;;;1.90;;
13228;SDS011;6680;53.220;10.402;2023-08-08T07:34:12;2.97;;;2.23;;
13228;SDS011;6680;53.220;10.402;2023-08-08T07:36:39;2.30;;;2.03;;
13228;SDS011;6680;53.220;10.402;2023-08-08T07:39:05;5.17;;;2.20;;
13228;SDS011;6680;53.220;10.402;2023-08-08T07:41:32;2.40;;;2.20;;
13228;SDS011;6680;53.220;10.402;2023-08-08T07:44:01;4.57;;;2.43;;
13228;SDS011;6680;53.220;10.402;2023-08-08T07:46:28;4.30;;;2.40;;
13228;SDS011;6680;53.220;10.402;2023-08-08T07:48:54;2.90;;;2.27;;
13228;SDS011;6680;53.220;10.402;2023-08-08T07:51:24;5.53;;;2.20;;
13228;SDS011;6680;53.220;10.402;2023-08-08T07:53:50;2.23;;;1.77;;
13228;SDS011;6680;53.220;10.402;2023-08-08T07:56:17;4.23;;;2.27;;
13228;SDS011;6680;53.220;10.402;2023-08-08T07:58:44;2.60;;;1.70;;
13228;SDS011;6680;53.220;10.402;2023-08-08T08:01:12;4.70;;;1.80;;
13228;SDS011;6680;53.220;10.402;2023-08-08T08:03:39;3.23;;;1.83;;
13228;SDS011;6680;53.220;10.402;2023-08-08T08:06:06;2.20;;;2.00;;
13228;SDS011;6680;53.220;10.402;2023-08-08T08:08:33;3.43;;;1.93;;
13228;SDS011;6680;53.220;10.402;2023-08-08T08:11:00;2.77;;;2.20;;
13228;SDS011;6680;53.220;10.402;2023-08-08T08:13:27;2.40;;;1.87;;
13228;SDS011;6680;53.220;10.402;2023-08-08T08:15:54;3.00;;;2.17;;
13228;SDS011;6680;53.220;10.402;2023-08-08T08:18:22;7.43;;;1.77;;
13228;SDS011;6680;53.220;10.402;2023-08-08T08:20:48;4.37;;;1.70;;
13228;SDS011;6680;53.220;10.402;2023-08-08T08:23:15;3.13;;;1.93;;
13228;SDS011;6680;53.220;10.402;2023-08-08T08:25:42;2.80;;;1.97;;
13228;SDS011;6680;53.220;10.402;2023-08-08T08:28:09;3.60;;;2.37;;
13228;SDS011;6680;53.220;10.402;2023-08-08T08:30:35;2.73;;;1.90;;
13228;SDS011;6680;53.220;10.402;2023-08-08T08:33:02;3.40;;;1.70;;
13228;SDS011;6680;53.220;10.402;2023-08-08T08:35:34;2.63;;;2.13;;
13228;SDS011;6680;53.220;10.402;2023-08-08T08:38:00;5.33;;;1.90;;
13228;SDS011;6680;53.220;10.402;2023-08-08T08:40:27;7.30;;;2.13;;
13228;SDS011;6680;53.220;10.402;2023-08-08T08:42:55;4.27;;;2.20;;
13228;SDS011;6680;53.220;10.402;2023-08-08T08:45:22;3.67;;;1.83;;
13228;SDS011;6680;53.220;10.402;2023-08-08T08:47:50;2.90;;;1.80;;
13228;SDS011;6680;53.220;10.402;2023-08-08T08:50:22;2.90;;;1.90;;
13228;SDS011;6680;53.220;10.402;2023-08-08T08:52:53;3.27;;;2.20;;
13228;SDS011;6680;53.220;10.402;2023-08-08T08:55:21;5.90;;;2.20;;
13228;SDS011;6680;53.220;10.402;2023-08-08T08:57:48;3.97;;;2.03;;
13228;SDS011;6680;53.220;10.402;2023-08-08T09:00:16;3.63;;;2.17;;
13228;SDS011;6680;53.220;10.402;2023-08-08T09:02:43;2.70;;;2.03;;
13228;SDS011;6680;53.220;10.402;2023-08-08T09:05:11;10.13;;;2.53;;
13228;SDS011;6680;53.220;10.402;2023-08-08T09:07:38;3.60;;;1.73;;
13228;SDS011;6680;53.220;10.402;2023-08-08T09:10:07;3.70;;;2.20;;
13228;SDS011;6680;53.220;10.402;2023-08-08T09:12:34;2.40;;;1.77;;
13228;SDS011;6680;53.220;10.402;2023-08-08T09:15:01;4.17;;;2.10;;
13228;SDS011;6680;53.220;10.402;2023-08-08T09:17:29;2.40;;;1.73;;
13228;SDS011;6680;53.220;10.402;2023-08-08T09:19:56;2.10;;;1.90;;
13228;SDS011;6680;53.220;10.402;2023-08-08T09:22:24;1.73;;;1.63;;
13228;SDS011;6680;53.220;10.402;2023-08-08T09:24:51;1.97;;;1.87;;
13228;SDS011;6680;53.220;10.402;2023-08-08T09:27:20;1.53;;;1.40;;
13228;SDS011;6680;53.220;10.402;2023-08-08T09:29:47;1.83;;;1.30;;
13228;SDS011;6680;53.220;10.402;2023-08-08T09:32:14;1.93;;;1.83;;
13228;SDS011;6680;53.220;10.402;2023-08-08T09:34:43;1.90;;;1.67;;
13228;SDS011;6680;53.220;10.402;2023-08-08T09:37:10;1.70;;;1.60;;
13228;SDS011;6680;53.220;10.402;2023-08-08T09:39:38;2.67;;;1.60;;
13228;SDS011;6680;53.220;10.402;2023-08-08T09:42:05;1.53;;;1.43;;
13228;SDS011;6680;53.220;10.402;2023-08-08T09:44:38;1.67;;;1.57;;
13228;SDS011;6680;53.220;10.402;2023-08-08T09:47:04;1.93;;;1.63;;
13228;SDS011;6680;53.220;10.402;2023-08-08T09:49:31;1.63;;;1.53;;
13228;SDS011;6680;53.220;10.402;2023-08-08T09:51:59;1.20;;;1.20;;
13228;SDS011;6680;53.220;10.402;2023-08-08T09:54:27;1.83;;;1.73;;
13228;SDS011;6680;53.220;10.402;2023-08-08T09:56:56;1.90;;;1.80;;
13228;SDS011;6680;53.220;10.402;2023-08-08T09:59:23;1.60;;;1.50;;
13228;SDS011;6680;53.220;10.402;2023-08-08T10:01:51;1.40;;;1.30;;
13228;SDS011;6680;53.220;10.402;2023-08-08T10:04:19;2.47;;;1.87;;
13228;SDS011;6680;53.220;10.402;2023-08-08T10:06:46;1.80;;;1.70;;
13228;SDS011;6680;53.220;10.402;2023-08-08T10:09:13;1.73;;;1.63;;
13228;SDS011;6680;53.220;10.402;2023-08-08T10:11:40;1.70;;;1.50;;
13228;SDS011;6680;53.220;10.402;2023-08-08T10:14:08;1.70;;;1.60;;
13228;SDS011;6680;53.220;10.402;2023-08-08T10:16:36;2.87;;;1.90;;
13228;SDS011;6680;53.220;10.402;2023-08-08T10:19:05;3.23;;;1.77;;
13228;SDS011;6680;53.220;10.402;2023-08-08T10:21:33;3.33;;;1.80;;
13228;SDS011;6680;53.220;10.402;2023-08-08T10:24:01;2.97;;;1.67;;
13228;SDS011;6680;53.220;10.402;2023-08-08T10:26:29;3.20;;;2.10;;
13228;SDS011;6680;53.220;10.402;2023-08-08T10:28:56;2.93;;;1.80;;
13228;SDS011;6680;53.220;10.402;2023-08-08T10:31:24;1.93;;;1.63;;
13228;SDS011;6680;53.220;10.402;2023-08-08T10:34:00;2.23;;;2.03;;
13228;SDS011;6680;53.220;10.402;2023-08-08T10:39:24;5.20;;;1.70;;
13228;SDS011;6680;53.220;10.402;2023-08-08T10:41:51;1.60;;;1.50;;
13228;SDS011;6680;53.220;10.402;2023-08-08T10:44:21;1.77;;;1.63;;
13228;SDS011;6680;53.220;10.402;2023-08-08T10:46:49;3.27;;;1.87;;
13228;SDS011;6680;53.220;10.402;2023-08-08T10:49:17;5.47;;;2.07;;
13228;SDS011;6680;53.220;10.402;2023-08-08T10:51:45;1.70;;;1.60;;
13228;SDS011;6680;53.220;10.402;2023-08-08T10:54:14;2.23;;;1.73;;
13228;SDS011;6680;53.220;10.402;2023-08-08T10:56:48;5.50;;;1.43;;
13228;SDS011;6680;53.220;10.402;2023-08-08T10:59:16;1.47;;;1.37;;
13228;SDS011;6680;53.220;10.402;2023-08-08T11:01:45;2.97;;;1.63;;
13228;SDS011;6680;53.220;10.402;2023-08-08T11:04:14;2.00;;;1.40;;
13228;SDS011;6680;53.220;10.402;2023-08-08T11:06:41;1.50;;;1.40;;
13228;SDS011;6680;53.220;10.402;2023-08-08T11:09:08;1.33;;;1.13;;
13228;SDS011;6680;53.220;10.402;2023-08-08T11:11:36;1.77;;;1.30;;
13228;SDS011;6680;53.220;10.402;2023-08-08T11:14:11;1.50;;;1.40;;
13228;SDS011;6680;53.220;10.402;2023-08-08T11:16:39;1.77;;;1.67;;
13228;SDS011;6680;53.220;10.402;2023-08-08T11:19:06;1.30;;;1.30;;
13228;SDS011;6680;53.220;10.402;2023-08-08T11:21:34;3.13;;;1.57;;
13228;SDS011;6680;53.220;10.402;2023-08-08T11:24:02;2.70;;;1.43;;
13228;SDS011;6680;53.220;10.402;2023-08-08T11:26:30;1.30;;;1.20;;
13228;SDS011;6680;53.220;10.402;2023-08-08T11:28:58;1.63;;;1.53;;
13228;SDS011;6680;53.220;10.402;2023-08-08T11:31:26;3.47;;;1.70;;
13228;SDS011;6680;53.220;10.402;2023-08-08T11:33:53;2.00;;;1.30;;
13228;SDS011;6680;53.220;10.402;2023-08-08T11:36:20;1.67;;;1.40;;
13228;SDS011;6680;53.220;10.402;2023-08-08T11:38:48;1.60;;;1.50;;
13228;SDS011;6680;53.220;10.402;2023-08-08T11:41:16;1.60;;;1.50;;
13228;SDS011;6680;53.220;10.402;2023-08-08T11:43:46;2.33;;;1.10;;
13228;SDS011;6680;53.220;10.402;2023-08-08T11:46:13;1.50;;;1.40;;
13228;SDS011;6680;53.220;10.402;2023-08-08T11:48:42;1.73;;;1.47;;
13228;SDS011;6680;53.220;10.402;2023-08-08T11:51:13;1.20;;;1.20;;
13228;SDS011;6680;53.220;10.402;2023-08-08T11:53:47;1.30;;;1.23;;
13228;SDS011;6680;53.220;10.402;2023-08-08T11:56:16;3.13;;;1.70;;
13228;SDS011;6680;53.220;10.402;2023-08-08T11:58:43;1.87;;;1.30;;
13228;SDS011;6680;53.220;10.402;2023-08-08T12:01:10;1.50;;;1.40;;
13228;SDS011;6680;53.220;10.402;2023-08-08T12:03:38;2.10;;;1.27;;
13228;SDS011;6680;53.220;10.402;2023-08-08T12:06:12;1.60;;;1.50;;
13228;SDS011;6680;53.220;10.402;2023-08-08T12:08:40;1.50;;;1.50;;
13228;SDS011;6680;53.220;10.402;2023-08-08T12:11:08;1.20;;;1.10;;
13228;SDS011;6680;53.220;10.402;2023-08-08T12:13:36;1.30;;;1.20;;
13228;SDS011;6680;53.220;10.402;2023-08-08T12:16:04;2.73;;;1.70;;
13228;SDS011;6680;53.220;10.402;2023-08-08T12:18:32;4.00;;;1.50;;
13228;SDS011;6680;53.220;10.402;2023-08-08T12:20:59;1.80;;;1.33;;
13228;SDS011;6680;53.220;10.402;2023-08-08T12:23:28;3.27;;;1.57;;
13228;SDS011;6680;53.220;10.402;2023-08-08T12:25:54;1.37;;;1.27;;
13228;SDS011;6680;53.220;10.402;2023-08-08T12:28:22;1.33;;;1.27;;
13228;SDS011;6680;53.220;10.402;2023-08-08T12:30:49;3.13;;;1.57;;
13228;SDS011;6680;53.220;10.402;2023-08-08T12:33:16;1.23;;;1.20;;
13228;SDS011;6680;53.220;10.402;2023-08-08T12:35:42;4.00;;;1.60;;
13228;SDS011;6680;53.220;10.402;2023-08-08T12:38:09;1.80;;;1.70;;
13228;SDS011;6680;53.220;10.402;2023-08-08T12:40:37;1.97;;;1.30;;
13228;SDS011;6680;53.220;10.402;2023-08-08T12:43:04;2.27;;;1.87;;
13228;SDS011;6680;53.220;10.402;2023-08-08T12:45:30;1.40;;;1.30;;
13228;SDS011;6680;53.220;10.402;2023-08-08T12:47:57;1.70;;;1.43;;
13228;SDS011;6680;53.220;10.402;2023-08-08T12:50:24;2.17;;;1.60;;
13228;SDS011;6680;53.220;10.402;2023-08-08T12:52:51;1.37;;;1.27;;
13228;SDS011;6680;53.220;10.402;2023-08-08T12:55:17;1.90;;;1.50;;
13228;SDS011;6680;53.220;10.402;2023-08-08T12:57:46;2.47;;;1.60;;
13228;SDS011;6680;53.220;10.402;2023-08-08T13:00:13;2.40;;;1.80;;
13228;SDS011;6680;53.220;10.402;2023-08-08T13:02:40;2.00;;;1.60;;
13228;SDS011;6680;53.220;10.402;2023-08-08T13:05:07;1.47;;;1.37;;
13228;SDS011;6680;53.220;10.402;2023-08-08T13:07:35;3.67;;;1.70;;
13228;SDS011;6680;53.220;10.402;2023-08-08T13:10:01;2.60;;;1.57;;
13228;SDS011;6680;53.220;10.402;2023-08-08T13:12:29;2.63;;;1.70;;
13228;SDS011;6680;53.220;10.402;2023-08-08T13:14:57;1.40;;;1.30;;
13228;SDS011;6680;53.220;10.402;2023-08-08T13:17:24;1.57;;;1.30;;
13228;SDS011;6680;53.220;10.402;2023-08-08T13:19:51;1.27;;;1.27;;
13228;SDS011;6680;53.220;10.402;2023-08-08T13:22:17;3.07;;;1.70;;
13228;SDS011;6680;53.220;10.402;2023-08-08T13:24:44;1.40;;;1.30;;
13228;SDS011;6680;53.220;10.402;2023-08-08T13:27:10;1.20;;;1.20;;
13228;SDS011;6680;53.220;10.402;2023-08-08T13:29:37;1.60;;;1.50;;
13228;SDS011;6680;53.220;10.402;2023-08-08T13:32:05;1.60;;;1.50;;
13228;SDS011;6680;53.220;10.402;2023-08-08T13:34:32;3.00;;;1.80;;
13228;SDS011;6680;53.220;10.402;2023-08-08T13:36:59;1.50;;;1.40;;
13228;SDS011;6680;53.220;10.402;2023-08-08T13:39:25;1.07;;;1.07;;
13228;SDS011;6680;53.220;10.402;2023-08-08T13:41:53;1.03;;;1.03;;
13228;SDS011;6680;53.220;10.402;2023-08-08T13:44:19;1.57;;;1.47;;
13228;SDS011;6680;53.220;10.402;2023-08-08T13:46:46;1.53;;;1.43;;
13228;SDS011;6680;53.220;10.402;2023-08-08T13:49:14;1.73;;;1.60;;
13228;SDS011;6680;53.220;10.402;2023-08-08T13:51:41;1.50;;;1.43;;
13228;SDS011;6680;53.220;10.402;2023-08-08T13:54:07;1.50;;;1.40;;
13228;SDS011;6680;53.220;10.402;2023-08-08T13:56:34;7.27;;;1.60;;
13228;SDS011;6680;53.220;10.402;2023-08-08T13:59:01;1.57;;;1.47;;
13228;SDS011;6680;53.220;10.402;2023-08-08T14:01:27;1.43;;;1.33;;
13228;SDS011;6680;53.220;10.402;2023-08-08T14:03:54;1.50;;;1.40;;
13228;SDS011;6680;53.220;10.402;2023-08-08T14:06:22;2.30;;;1.60;;
13228;SDS011;6680;53.220;10.402;2023-08-08T14:08:48;2.90;;;1.50;;
13228;SDS011;6680;53.220;10.402;2023-08-08T14:11:17;1.63;;;1.53;;
13228;SDS011;6680;53.220;10.402;2023-08-08T14:13:43;2.47;;;1.40;;
13228;SDS011;6680;53.220;10.402;2023-08-08T14:16:10;3.93;;;1.47;;
13228;SDS011;6680;53.220;10.402;2023-08-08T14:18:39;1.80;;;1.70;;
13228;SDS011;6680;53.220;10.402;2023-08-08T14:21:06;2.23;;;1.30;;
13228;SDS011;6680;53.220;10.402;2023-08-08T14:23:34;2.23;;;1.47;;
13228;SDS011;6680;53.220;10.402;2023-08-08T14:26:01;2.47;;;1.33;;
13228;SDS011;6680;53.220;10.402;2023-08-08T14:28:27;3.10;;;1.67;;
13228;SDS011;6680;53.220;10.402;2023-08-08T14:30:54;1.70;;;1.17;;
13228;SDS011;6680;53.220;10.402;2023-08-08T14:33:20;3.33;;;1.67;;
13228;SDS011;6680;53.220;10.402;2023-08-08T14:35:47;3.50;;;1.77;;
13228;SDS011;6680;53.220;10.402;2023-08-08T14:38:14;1.70;;;1.60;;
13228;SDS011;6680;53.220;10.402;2023-08-08T14:40:43;3.90;;;1.43;;
13228;SDS011;6680;53.220;10.402;2023-08-08T14:43:09;1.67;;;1.50;;
13228;SDS011;6680;53.220;10.402;2023-08-08T14:45:36;1.70;;;1.60;;
13228;SDS011;6680;53.220;10.402;2023-08-08T14:48:03;4.50;;;1.67;;
13228;SDS011;6680;53.220;10.402;2023-08-08T14:50:30;1.70;;;1.60;;